createdAt,value
2022-10-31T00:00:02.904Z,11.42
2022-10-31T00:01:03.244Z,11.40
2022-10-31T00:02:02.494Z,11.41
2022-10-31T00:03:02.509Z,11.41
2022-10-31T00:04:02.410Z,11.41
2022-10-31T00:05:02.365Z,11.40
2022-10-31T00:06:02.321Z,11.39
2022-10-31T00:07:02.834Z,11.40
2022-10-31T00:08:02.646Z,11.40
2022-10-31T00:09:02.451Z,11.39
2022-10-31T00:10:02.534Z,11.41
2022-10-31T00:11:02.221Z,11.43
2022-10-31T00:12:01.906Z,11.48
2022-10-31T00:13:02.033Z,11.50
2022-10-31T00:14:02.466Z,11.50
2022-10-31T00:15:01.853Z,11.52
2022-10-31T00:16:02.456Z,11.53
2022-10-31T00:17:02.539Z,11.52
2022-10-31T00:18:02.286Z,11.53
2022-10-31T00:19:02.119Z,11.53
2022-10-31T00:20:02.468Z,11.52
2022-10-31T00:21:02.048Z,11.52
2022-10-31T00:22:02.697Z,11.49
2022-10-31T00:23:02.664Z,11.46
2022-10-31T00:24:02.979Z,11.44
2022-10-31T00:25:03.032Z,11.44
2022-10-31T00:26:02.777Z,11.46
2022-10-31T00:27:02.693Z,11.45
2022-10-31T00:28:03.259Z,11.44
2022-10-31T00:29:02.815Z,11.47
2022-10-31T00:30:03.198Z,11.49
2022-10-31T00:31:02.665Z,11.52
2022-10-31T00:32:02.616Z,11.50
2022-10-31T00:33:02.444Z,11.53
2022-10-31T00:34:02.467Z,11.56
2022-10-31T00:35:02.081Z,11.55
2022-10-31T00:36:02.064Z,11.54
2022-10-31T00:37:02.647Z,11.53
2022-10-31T00:38:02.773Z,11.55
2022-10-31T00:39:02.761Z,11.55
2022-10-31T00:40:02.765Z,11.54
2022-10-31T00:41:03.063Z,11.56
2022-10-31T00:42:02.045Z,11.57
2022-10-31T00:43:02.193Z,11.54
2022-10-31T00:44:02.467Z,11.51
2022-10-31T00:45:02.227Z,11.51
2022-10-31T00:46:02.202Z,11.53
2022-10-31T00:47:02.488Z,11.54
2022-10-31T00:48:02.820Z,11.51
2022-10-31T00:49:02.015Z,11.51
2022-10-31T00:50:01.996Z,11.48
2022-10-31T00:51:02.287Z,11.46
2022-10-31T00:52:03.017Z,11.39
2022-10-31T00:53:02.619Z,11.37
2022-10-31T00:54:02.617Z,11.36
2022-10-31T00:55:03.185Z,11.36
2022-10-31T00:56:02.729Z,11.33
2022-10-31T00:57:02.568Z,11.32
2022-10-31T00:58:03.419Z,11.31
2022-10-31T00:59:02.779Z,11.29
2022-10-31T01:00:02.509Z,11.27
2022-10-31T01:01:02.650Z,11.23
2022-10-31T01:02:02.534Z,11.17
2022-10-31T01:03:03.112Z,11.12
2022-10-31T01:04:03.001Z,11.09
2022-10-31T01:05:02.709Z,11.11
2022-10-31T01:06:02.425Z,11.14
2022-10-31T01:07:03.337Z,11.16
2022-10-31T01:08:03.170Z,11.20
2022-10-31T01:09:03.056Z,11.19
2022-10-31T01:10:02.854Z,11.19
2022-10-31T01:11:02.910Z,11.19
2022-10-31T01:12:02.730Z,11.19
2022-10-31T01:13:02.778Z,11.18
2022-10-31T01:14:02.655Z,11.17
2022-10-31T01:15:02.606Z,11.18
2022-10-31T01:16:02.767Z,11.18
2022-10-31T01:17:02.681Z,11.16
2022-10-31T01:18:02.935Z,11.18
2022-10-31T01:19:02.812Z,11.19
2022-10-31T01:20:02.821Z,11.19
2022-10-31T01:21:03.036Z,11.21
2022-10-31T01:22:03.416Z,11.22
2022-10-31T01:23:03.225Z,11.24
2022-10-31T01:24:03.250Z,11.22
2022-10-31T01:25:03.603Z,11.20
2022-10-31T01:26:03.183Z,11.17
2022-10-31T01:27:02.705Z,11.18
2022-10-31T01:28:02.744Z,11.21
2022-10-31T01:29:02.683Z,11.25
2022-10-31T01:30:02.898Z,11.22
2022-10-31T01:31:02.623Z,11.20
2022-10-31T01:32:02.870Z,11.17
2022-10-31T01:33:02.906Z,11.15
2022-10-31T01:34:02.767Z,11.12
2022-10-31T01:35:03.012Z,11.10
2022-10-31T01:36:02.783Z,11.07
2022-10-31T01:37:03.271Z,11.04
2022-10-31T01:38:03.563Z,11.02
2022-10-31T01:39:03.193Z,11.00
2022-10-31T01:40:03.454Z,10.99
2022-10-31T01:41:03.481Z,10.99
2022-10-31T01:42:03.662Z,10.98
2022-10-31T01:43:03.419Z,10.96
2022-10-31T01:44:03.234Z,10.98
2022-10-31T01:45:03.484Z,10.99
2022-10-31T01:46:03.645Z,10.98
2022-10-31T01:47:02.696Z,10.96
2022-10-31T01:48:02.867Z,10.93
2022-10-31T01:49:03.065Z,10.89
2022-10-31T01:50:02.839Z,10.89
2022-10-31T01:51:02.890Z,10.94
2022-10-31T01:52:03.389Z,10.98
2022-10-31T01:53:03.740Z,11.03
2022-10-31T01:54:03.618Z,11.05
2022-10-31T01:55:03.759Z,11.06
2022-10-31T01:56:03.549Z,11.08
2022-10-31T01:57:03.021Z,11.06
2022-10-31T01:58:03.669Z,11.09
2022-10-31T01:59:02.931Z,11.13
2022-10-31T02:00:02.969Z,11.15
2022-10-31T02:01:06.838Z,11.14
2022-10-31T02:02:02.541Z,11.15
2022-10-31T02:03:03.318Z,11.16
2022-10-31T02:04:02.534Z,11.17
2022-10-31T02:05:02.507Z,11.17
2022-10-31T02:06:02.470Z,11.17
2022-10-31T02:07:02.655Z,11.18
2022-10-31T02:08:02.872Z,11.16
2022-10-31T02:09:02.888Z,11.16
2022-10-31T02:10:03.168Z,11.14
2022-10-31T02:11:02.658Z,11.14
2022-10-31T02:12:02.250Z,11.09
2022-10-31T02:13:02.628Z,11.06
2022-10-31T02:14:01.858Z,11.01
2022-10-31T02:15:01.833Z,10.96
2022-10-31T02:16:01.864Z,10.94
2022-10-31T02:17:01.886Z,10.91
2022-10-31T02:18:02.637Z,10.91
2022-10-31T02:19:02.211Z,10.89
2022-10-31T02:20:02.153Z,10.88
2022-10-31T02:21:01.920Z,10.89
2022-10-31T02:22:02.192Z,10.90
2022-10-31T02:23:02.611Z,10.91
2022-10-31T02:24:02.469Z,10.92
2022-10-31T02:25:02.347Z,10.93
2022-10-31T02:26:02.564Z,10.96
2022-10-31T02:27:02.352Z,10.96
2022-10-31T02:28:03.382Z,10.98
2022-10-31T02:29:02.519Z,11.00
2022-10-31T02:30:02.913Z,11.03
2022-10-31T02:31:02.680Z,11.02
2022-10-31T02:32:03.043Z,11.00
2022-10-31T02:33:03.761Z,10.99
2022-10-31T02:34:02.857Z,10.97
2022-10-31T02:35:03.351Z,10.96
2022-10-31T02:36:03.348Z,10.96
2022-10-31T02:37:02.168Z,10.94
2022-10-31T02:38:02.158Z,10.94
2022-10-31T02:39:02.102Z,10.95
2022-10-31T02:40:02.082Z,10.99
2022-10-31T02:41:02.021Z,11.01
2022-10-31T02:42:02.077Z,11.03
2022-10-31T02:43:02.576Z,11.05
2022-10-31T02:44:02.028Z,11.05
2022-10-31T02:45:02.296Z,11.07
2022-10-31T02:46:01.990Z,11.08
2022-10-31T02:47:02.684Z,11.08
2022-10-31T02:48:03.355Z,11.07
2022-10-31T02:49:03.121Z,11.06
2022-10-31T02:50:03.266Z,11.06
2022-10-31T02:51:03.245Z,11.06
2022-10-31T02:52:03.231Z,11.04
2022-10-31T02:53:03.039Z,11.05
2022-10-31T02:54:03.276Z,11.09
2022-10-31T02:55:02.757Z,11.12
2022-10-31T02:56:03.016Z,11.12
2022-10-31T02:57:01.773Z,11.12
2022-10-31T02:58:02.325Z,11.15
2022-10-31T02:59:02.359Z,11.14
2022-10-31T03:00:02.442Z,11.13
2022-10-31T03:01:02.050Z,11.14
2022-10-31T03:02:03.562Z,11.16
2022-10-31T03:03:03.752Z,11.14
2022-10-31T03:04:03.586Z,11.15
2022-10-31T03:05:03.181Z,11.15
2022-10-31T03:06:02.985Z,11.14
2022-10-31T03:07:03.565Z,11.13
2022-10-31T03:08:03.102Z,11.13
2022-10-31T03:09:03.072Z,11.13
2022-10-31T03:10:02.988Z,11.13
2022-10-31T03:11:03.558Z,11.09
2022-10-31T03:12:02.669Z,11.07
2022-10-31T03:13:02.725Z,11.06
2022-10-31T03:14:02.667Z,11.03
2022-10-31T03:15:02.938Z,11.01
2022-10-31T03:16:02.856Z,10.99
2022-10-31T03:17:03.278Z,10.96
2022-10-31T03:18:03.264Z,10.96
2022-10-31T03:19:03.224Z,10.94
2022-10-31T03:20:03.288Z,10.93
2022-10-31T03:21:03.220Z,10.89
2022-10-31T03:22:03.202Z,10.86
2022-10-31T03:23:03.097Z,10.83
2022-10-31T03:24:03.156Z,10.82
2022-10-31T03:25:03.113Z,10.82
2022-10-31T03:26:03.478Z,10.81
2022-10-31T03:27:02.650Z,10.79
2022-10-31T03:28:03.091Z,10.76
2022-10-31T03:29:02.420Z,10.74
2022-10-31T03:30:03.071Z,10.72
2022-10-31T03:31:04.882Z,10.69
2022-10-31T03:32:03.323Z,10.67
2022-10-31T03:33:03.414Z,10.67
2022-10-31T03:34:03.452Z,10.68
2022-10-31T03:35:03.116Z,10.70
2022-10-31T03:36:03.041Z,10.69
2022-10-31T03:37:03.346Z,10.70
2022-10-31T03:38:05.576Z,10.69
2022-10-31T03:39:03.273Z,10.70
2022-10-31T03:40:02.890Z,10.68
2022-10-31T03:41:03.506Z,10.64
2022-10-31T03:42:03.576Z,10.61
2022-10-31T03:43:03.418Z,10.57
2022-10-31T03:44:03.095Z,10.54
2022-10-31T03:45:03.384Z,10.51
2022-10-31T03:46:03.221Z,10.50
2022-10-31T03:47:03.249Z,10.49
2022-10-31T03:48:03.505Z,10.49
2022-10-31T03:49:03.172Z,10.53
2022-10-31T03:50:03.091Z,10.55
2022-10-31T03:51:02.892Z,10.56
2022-10-31T03:52:02.866Z,10.57
2022-10-31T03:53:02.779Z,10.58
2022-10-31T03:54:02.861Z,10.59
2022-10-31T03:55:03.012Z,10.59
2022-10-31T03:56:02.683Z,10.56
2022-10-31T03:57:03.518Z,10.56
2022-10-31T03:58:03.859Z,10.54
2022-10-31T03:59:03.151Z,10.53
2022-10-31T04:00:03.560Z,10.53
2022-10-31T04:01:03.712Z,10.54
2022-10-31T04:02:02.962Z,10.55
2022-10-31T04:03:03.165Z,10.57
2022-10-31T04:04:03.013Z,10.58
2022-10-31T04:05:02.862Z,10.60
2022-10-31T04:06:02.558Z,10.61
2022-10-31T04:07:02.949Z,10.62
2022-10-31T04:08:03.196Z,10.62
2022-10-31T04:09:03.019Z,10.63
2022-10-31T04:10:03.525Z,10.63
2022-10-31T04:11:03.182Z,10.64
2022-10-31T04:12:03.473Z,10.67
2022-10-31T04:13:03.870Z,10.67
2022-10-31T04:14:03.440Z,10.65
2022-10-31T04:15:03.629Z,10.66
2022-10-31T04:16:03.398Z,10.66
2022-10-31T04:17:03.048Z,10.69
2022-10-31T04:18:03.314Z,10.68
2022-10-31T04:19:03.039Z,10.67
2022-10-31T04:20:02.865Z,10.67
2022-10-31T04:21:03.264Z,10.67
2022-10-31T04:22:03.337Z,10.66
2022-10-31T04:23:02.965Z,10.65
2022-10-31T04:24:03.329Z,10.62
2022-10-31T04:25:03.114Z,10.59
2022-10-31T04:26:03.216Z,10.56
2022-10-31T04:27:03.497Z,10.55
2022-10-31T04:28:03.671Z,10.53
2022-10-31T04:29:03.552Z,10.52
2022-10-31T04:30:03.757Z,10.50
2022-10-31T04:31:03.491Z,10.47
2022-10-31T04:32:03.336Z,10.45
2022-10-31T04:33:03.995Z,10.44
2022-10-31T04:34:03.583Z,10.42
2022-10-31T04:35:03.787Z,10.44
2022-10-31T04:36:03.497Z,10.42
2022-10-31T04:37:02.880Z,10.38
2022-10-31T04:38:02.908Z,10.35
2022-10-31T04:39:03.280Z,10.32
2022-10-31T04:40:02.756Z,10.31
2022-10-31T04:41:02.893Z,10.30
2022-10-31T04:42:02.365Z,10.30
2022-10-31T04:43:03.240Z,10.30
2022-10-31T04:44:02.826Z,10.28
2022-10-31T04:45:02.583Z,10.32
2022-10-31T04:46:02.735Z,10.34
2022-10-31T04:47:02.900Z,10.38
2022-10-31T04:48:03.517Z,10.41
2022-10-31T04:49:03.202Z,10.44
2022-10-31T04:50:02.904Z,10.47
2022-10-31T04:51:03.295Z,10.49
2022-10-31T04:52:03.078Z,10.50
2022-10-31T04:53:03.363Z,10.52
2022-10-31T04:54:03.023Z,10.52
2022-10-31T04:55:03.379Z,10.51
2022-10-31T04:56:03.614Z,10.50
2022-10-31T04:57:02.813Z,10.49
2022-10-31T04:58:03.346Z,10.46
2022-10-31T04:59:02.882Z,10.44
2022-10-31T05:00:02.581Z,10.47
2022-10-31T05:01:02.722Z,10.44
2022-10-31T05:02:03.846Z,10.45
2022-10-31T05:03:03.350Z,10.43
2022-10-31T05:04:03.165Z,10.40
2022-10-31T05:05:03.302Z,10.37
2022-10-31T05:06:03.648Z,10.34
2022-10-31T05:07:03.122Z,10.30
2022-10-31T05:08:02.671Z,10.27
2022-10-31T05:09:03.169Z,10.24
2022-10-31T05:10:02.778Z,10.19
2022-10-31T05:11:04.444Z,10.16
2022-10-31T05:12:03.477Z,10.11
2022-10-31T05:13:04.155Z,10.07
2022-10-31T05:14:03.143Z,10.02
2022-10-31T05:15:03.095Z,10.02
2022-10-31T05:16:03.593Z,10.03
2022-10-31T05:17:03.608Z,10.05
2022-10-31T05:18:04.009Z,10.07
2022-10-31T05:19:03.276Z,10.09
2022-10-31T05:20:03.276Z,10.08
2022-10-31T05:21:03.500Z,10.05
2022-10-31T05:22:02.853Z,10.01
2022-10-31T05:23:02.883Z,9.96
2022-10-31T05:24:02.806Z,9.93
2022-10-31T05:25:03.052Z,9.92
2022-10-31T05:26:03.332Z,9.96
2022-10-31T05:27:03.447Z,9.99
2022-10-31T05:28:03.750Z,10.04
2022-10-31T05:29:03.029Z,10.05
2022-10-31T05:30:03.509Z,10.06
2022-10-31T05:31:03.380Z,10.08
2022-10-31T05:32:03.143Z,10.04
2022-10-31T05:33:03.468Z,10.02
2022-10-31T05:34:03.570Z,10.01
2022-10-31T05:35:03.596Z,10.01
2022-10-31T05:36:03.589Z,10.02
2022-10-31T05:37:02.558Z,10.02
2022-10-31T05:38:02.535Z,10.04
2022-10-31T05:39:02.506Z,10.05
2022-10-31T05:40:07.105Z,10.09
2022-10-31T05:41:02.657Z,10.12
2022-10-31T05:42:03.363Z,10.13
2022-10-31T05:43:03.748Z,10.14
2022-10-31T05:44:02.825Z,10.18
2022-10-31T05:45:03.280Z,10.17
2022-10-31T05:46:02.985Z,10.15
2022-10-31T05:47:03.348Z,10.13
2022-10-31T05:48:03.741Z,10.11
2022-10-31T05:49:03.736Z,10.12
2022-10-31T05:50:03.298Z,10.14
2022-10-31T05:51:03.723Z,10.17
2022-10-31T05:52:02.676Z,10.21
2022-10-31T05:53:03.174Z,10.22
2022-10-31T05:54:02.753Z,10.24
2022-10-31T05:55:03.077Z,10.24
2022-10-31T05:56:03.367Z,10.23
2022-10-31T05:57:03.646Z,10.24
2022-10-31T05:58:03.703Z,10.22
2022-10-31T05:59:03.648Z,10.24
2022-10-31T06:00:03.557Z,10.21
2022-10-31T06:01:03.033Z,10.24
2022-10-31T06:02:02.692Z,10.26
2022-10-31T06:03:03.107Z,10.27
2022-10-31T06:04:03.217Z,10.27
2022-10-31T06:05:02.759Z,10.29
2022-10-31T06:06:02.990Z,10.30
2022-10-31T06:07:02.061Z,10.32
2022-10-31T06:08:03.052Z,10.33
2022-10-31T06:09:02.241Z,10.33
2022-10-31T06:10:02.346Z,10.35
2022-10-31T06:11:02.498Z,10.35
2022-10-31T06:12:02.625Z,10.34
2022-10-31T06:13:02.357Z,10.32
2022-10-31T06:14:02.830Z,10.31
2022-10-31T06:15:02.684Z,10.30
2022-10-31T06:16:02.233Z,10.33
2022-10-31T06:17:02.622Z,10.35
2022-10-31T06:18:03.459Z,10.37
2022-10-31T06:19:02.951Z,10.38
2022-10-31T06:20:02.760Z,10.40
2022-10-31T06:21:02.525Z,10.40
2022-10-31T06:22:02.355Z,10.42
2022-10-31T06:23:02.715Z,10.41
2022-10-31T06:24:02.569Z,10.42
2022-10-31T06:25:02.360Z,10.40
2022-10-31T06:26:02.470Z,10.39
2022-10-31T06:27:02.661Z,10.38
2022-10-31T06:28:03.169Z,10.37
2022-10-31T06:29:04.003Z,10.37
2022-10-31T06:30:03.278Z,10.34
2022-10-31T06:31:03.150Z,10.32
2022-10-31T06:32:02.632Z,10.30
2022-10-31T06:33:02.893Z,10.28
2022-10-31T06:34:02.430Z,10.25
2022-10-31T06:35:02.903Z,10.22
2022-10-31T06:36:03.026Z,10.21
2022-10-31T06:37:02.019Z,10.20
2022-10-31T06:38:02.412Z,10.21
2022-10-31T06:39:02.524Z,10.23
2022-10-31T06:40:02.323Z,10.25
2022-10-31T06:41:02.396Z,10.29
2022-10-31T06:42:02.496Z,10.33
2022-10-31T06:43:02.161Z,10.36
2022-10-31T06:44:06.386Z,10.38
2022-10-31T06:45:02.650Z,10.42
2022-10-31T06:46:02.411Z,10.45
2022-10-31T06:47:03.012Z,10.45
2022-10-31T06:48:18.721Z,10.44
2022-10-31T06:49:02.816Z,10.43
2022-10-31T06:50:03.165Z,10.43
2022-10-31T06:51:03.101Z,10.43
2022-10-31T06:52:02.403Z,10.46
2022-10-31T06:53:02.433Z,10.51
2022-10-31T06:54:02.617Z,10.52
2022-10-31T06:55:02.075Z,10.55
2022-10-31T06:56:02.238Z,10.57
2022-10-31T06:57:02.945Z,10.61
2022-10-31T06:58:03.291Z,10.64
2022-10-31T06:59:02.828Z,10.69
2022-10-31T07:00:02.711Z,10.73
2022-10-31T07:01:03.254Z,10.78
2022-10-31T07:02:02.181Z,10.78
2022-10-31T07:03:02.343Z,10.80
2022-10-31T07:04:02.101Z,10.81
2022-10-31T07:05:01.768Z,10.82
2022-10-31T07:06:02.149Z,10.85
2022-10-31T07:07:02.445Z,10.86
2022-10-31T07:08:02.474Z,10.87
2022-10-31T07:09:02.123Z,10.90
2022-10-31T07:10:02.302Z,10.92
2022-10-31T07:11:02.618Z,10.93
2022-10-31T07:12:02.857Z,10.96
2022-10-31T07:13:03.091Z,10.98
2022-10-31T07:14:03.032Z,11.00
2022-10-31T07:15:02.855Z,11.02
2022-10-31T07:16:02.864Z,11.04
2022-10-31T07:17:02.901Z,11.07
2022-10-31T07:18:02.812Z,11.09
2022-10-31T07:19:02.530Z,11.14
2022-10-31T07:20:02.948Z,11.17
2022-10-31T07:21:02.730Z,11.18
2022-10-31T07:22:02.749Z,11.20
2022-10-31T07:23:03.152Z,11.22
2022-10-31T07:24:03.258Z,11.23
2022-10-31T07:25:03.241Z,11.26
2022-10-31T07:26:03.345Z,11.28
2022-10-31T07:27:02.014Z,11.30
2022-10-31T07:28:02.703Z,11.31
2022-10-31T07:29:02.352Z,11.31
2022-10-31T07:30:01.800Z,11.32
2022-10-31T07:31:01.827Z,11.31
2022-10-31T07:32:02.841Z,11.33
2022-10-31T07:33:02.694Z,11.35
2022-10-31T07:34:02.767Z,11.36
2022-10-31T07:35:02.865Z,11.38
2022-10-31T07:36:02.596Z,11.39
2022-10-31T07:37:02.341Z,11.39
2022-10-31T07:38:02.433Z,11.42
2022-10-31T07:39:02.433Z,11.44
2022-10-31T07:40:02.385Z,11.48
2022-10-31T07:41:02.398Z,11.51
2022-10-31T07:42:03.073Z,11.53
2022-10-31T07:43:02.599Z,11.57
2022-10-31T07:44:03.131Z,11.61
2022-10-31T07:45:03.053Z,11.64
2022-10-31T07:46:02.969Z,11.68
2022-10-31T07:47:02.545Z,11.71
2022-10-31T07:48:03.360Z,11.73
2022-10-31T07:49:02.940Z,11.78
2022-10-31T07:50:02.674Z,11.83
2022-10-31T07:51:02.864Z,11.88
2022-10-31T07:52:02.280Z,11.90
2022-10-31T07:53:02.352Z,11.93
2022-10-31T07:54:02.141Z,11.94
2022-10-31T07:55:02.189Z,11.95
2022-10-31T07:56:02.309Z,11.97
2022-10-31T07:57:02.548Z,11.98
2022-10-31T07:58:02.721Z,12.01
2022-10-31T07:59:02.397Z,12.04
2022-10-31T08:00:02.474Z,12.08
2022-10-31T08:01:02.804Z,12.11
2022-10-31T08:02:03.134Z,12.14
2022-10-31T08:03:03.077Z,12.18
2022-10-31T08:04:02.922Z,12.18
2022-10-31T08:05:02.553Z,12.19
2022-10-31T08:06:02.684Z,12.21
2022-10-31T08:07:03.038Z,12.23
2022-10-31T08:08:03.511Z,12.25
2022-10-31T08:09:03.088Z,12.27
2022-10-31T08:10:03.183Z,12.29
2022-10-31T08:11:03.277Z,12.30
2022-10-31T08:12:03.771Z,12.33
2022-10-31T08:13:03.559Z,12.34
2022-10-31T08:14:03.794Z,12.35
2022-10-31T08:15:03.534Z,12.37
2022-10-31T08:16:03.274Z,12.38
2022-10-31T08:17:03.214Z,12.41
2022-10-31T08:18:03.169Z,12.42
2022-10-31T08:19:03.193Z,12.44
2022-10-31T08:20:03.076Z,12.48
2022-10-31T08:21:03.178Z,12.48
2022-10-31T08:22:03.745Z,12.51
2022-10-31T08:23:03.500Z,12.53
2022-10-31T08:24:03.157Z,12.59
2022-10-31T08:25:03.227Z,12.63
2022-10-31T08:26:03.341Z,12.66
2022-10-31T08:27:02.854Z,12.70
2022-10-31T08:28:03.102Z,12.73
2022-10-31T08:29:02.432Z,12.75
2022-10-31T08:30:02.653Z,12.77
2022-10-31T08:31:02.562Z,12.79
2022-10-31T08:32:02.774Z,12.80
2022-10-31T08:33:02.967Z,12.82
2022-10-31T08:34:03.282Z,12.85
2022-10-31T08:35:03.091Z,12.85
2022-10-31T08:36:03.263Z,12.88
2022-10-31T08:37:03.056Z,12.92
2022-10-31T08:38:03.646Z,12.95
2022-10-31T08:39:03.693Z,12.99
2022-10-31T08:40:03.183Z,13.05
2022-10-31T08:41:03.505Z,13.10
2022-10-31T08:42:02.692Z,13.14
2022-10-31T08:43:02.296Z,13.18
2022-10-31T08:44:02.891Z,13.23
2022-10-31T08:45:02.287Z,13.27
2022-10-31T08:46:02.568Z,13.29
2022-10-31T08:47:03.077Z,13.32
2022-10-31T08:48:03.530Z,13.35
2022-10-31T08:49:03.473Z,13.39
2022-10-31T08:50:03.488Z,13.42
2022-10-31T08:51:03.074Z,13.44
2022-10-31T08:52:03.221Z,13.46
2022-10-31T08:53:05.640Z,13.49
2022-10-31T08:54:03.168Z,13.50
2022-10-31T08:55:03.319Z,13.50
2022-10-31T08:56:03.458Z,13.52
2022-10-31T08:57:03.056Z,13.53
2022-10-31T08:58:03.483Z,13.57
2022-10-31T08:59:03.040Z,13.60
2022-10-31T09:00:03.245Z,13.65
2022-10-31T09:01:03.194Z,13.67
2022-10-31T09:02:02.499Z,13.70
2022-10-31T09:03:02.817Z,13.71
2022-10-31T09:04:02.339Z,13.73
2022-10-31T09:05:02.740Z,13.75
2022-10-31T09:06:02.899Z,13.76
2022-10-31T09:07:20.109Z,13.79
2022-10-31T09:08:03.458Z,13.80
2022-10-31T09:09:02.468Z,13.83
2022-10-31T09:10:02.680Z,13.87
2022-10-31T09:11:02.901Z,13.89
2022-10-31T09:12:03.152Z,13.93
2022-10-31T09:13:03.076Z,13.94
2022-10-31T09:14:03.291Z,13.92
2022-10-31T09:15:03.137Z,13.95
2022-10-31T09:16:03.388Z,13.98
2022-10-31T09:17:02.868Z,13.99
2022-10-31T09:18:03.189Z,13.99
2022-10-31T09:19:05.185Z,13.99
2022-10-31T09:20:02.905Z,13.99
2022-10-31T09:21:03.351Z,14.02
2022-10-31T09:22:03.017Z,14.05
2022-10-31T09:23:03.528Z,14.04
2022-10-31T09:24:03.017Z,14.03
2022-10-31T09:25:03.024Z,14.06
2022-10-31T09:26:03.157Z,14.06
2022-10-31T09:27:02.601Z,14.07
2022-10-31T09:28:02.767Z,14.10
2022-10-31T09:29:03.034Z,14.14
2022-10-31T09:30:02.625Z,14.14
2022-10-31T09:31:02.857Z,14.18
2022-10-31T09:32:02.973Z,14.23
2022-10-31T09:33:03.364Z,14.29
2022-10-31T09:34:03.291Z,14.34
2022-10-31T09:35:03.213Z,14.39
2022-10-31T09:36:03.246Z,14.43
2022-10-31T09:37:02.780Z,14.42
2022-10-31T09:38:03.208Z,14.45
2022-10-31T09:39:02.979Z,14.50
2022-10-31T09:40:03.140Z,14.53
2022-10-31T09:41:03.036Z,14.54
2022-10-31T09:42:03.302Z,14.58
2022-10-31T09:43:03.406Z,14.61
2022-10-31T09:44:03.031Z,14.64
2022-10-31T09:45:03.176Z,14.67
2022-10-31T09:46:03.068Z,14.71
2022-10-31T09:47:02.451Z,14.76
2022-10-31T09:48:03.206Z,14.83
2022-10-31T09:49:02.132Z,14.88
2022-10-31T09:50:02.490Z,14.94
2022-10-31T09:51:02.626Z,15.00
2022-10-31T09:52:03.140Z,15.05
2022-10-31T09:53:03.561Z,15.09
2022-10-31T09:54:02.754Z,15.11
2022-10-31T09:55:02.897Z,15.14
2022-10-31T09:56:03.199Z,15.17
2022-10-31T09:57:03.097Z,15.22
2022-10-31T09:58:02.904Z,15.23
2022-10-31T09:59:03.364Z,15.23
2022-10-31T10:00:03.150Z,15.24
2022-10-31T10:01:03.269Z,15.24
2022-10-31T10:02:02.802Z,15.25
2022-10-31T10:03:02.981Z,15.21
2022-10-31T10:04:02.443Z,15.26
2022-10-31T10:05:02.962Z,15.21
2022-10-31T10:06:02.380Z,15.18
2022-10-31T10:07:02.960Z,15.24
2022-10-31T10:08:02.919Z,15.19
2022-10-31T10:09:02.666Z,15.23
2022-10-31T10:10:02.919Z,15.27
2022-10-31T10:11:02.817Z,15.34
2022-10-31T10:12:02.569Z,15.37
2022-10-31T10:13:05.004Z,15.39
2022-10-31T10:14:02.284Z,15.40
2022-10-31T10:15:02.630Z,15.40
2022-10-31T10:16:02.164Z,15.43
2022-10-31T10:17:02.716Z,15.50
2022-10-31T10:18:02.423Z,15.55
2022-10-31T10:19:02.350Z,15.58
2022-10-31T10:20:02.914Z,15.58
2022-10-31T10:21:02.384Z,15.63
2022-10-31T10:22:03.240Z,15.63
2022-10-31T10:23:03.171Z,15.65
2022-10-31T10:24:02.990Z,15.66
2022-10-31T10:25:03.089Z,15.68
2022-10-31T10:26:07.350Z,15.69
2022-10-31T10:27:03.315Z,15.68
2022-10-31T10:28:03.787Z,15.66
2022-10-31T10:29:02.887Z,15.68
2022-10-31T10:30:03.168Z,15.66
2022-10-31T10:31:02.933Z,15.71
2022-10-31T10:32:02.978Z,15.68
2022-10-31T10:33:02.582Z,15.70
2022-10-31T10:34:02.582Z,15.67
2022-10-31T10:35:03.125Z,15.68
2022-10-31T10:36:02.625Z,15.69
2022-10-31T10:37:03.244Z,15.69
2022-10-31T10:38:02.971Z,15.71
2022-10-31T10:39:02.846Z,15.72
2022-10-31T10:40:03.062Z,15.75
2022-10-31T10:41:03.132Z,15.74
2022-10-31T10:42:02.952Z,15.75
2022-10-31T10:43:02.628Z,15.75
2022-10-31T10:44:02.847Z,15.76
2022-10-31T10:45:02.655Z,15.79
2022-10-31T10:46:05.380Z,15.85
2022-10-31T10:47:02.069Z,15.90
2022-10-31T10:48:03.033Z,15.94
2022-10-31T10:49:02.234Z,15.96
2022-10-31T10:50:02.493Z,15.98
2022-10-31T10:51:02.699Z,16.01
2022-10-31T10:52:19.465Z,16.03
2022-10-31T10:53:02.819Z,16.04
2022-10-31T10:54:06.583Z,16.07
2022-10-31T10:55:02.255Z,16.13
2022-10-31T10:56:02.866Z,16.20
2022-10-31T10:57:02.914Z,16.27
2022-10-31T10:58:03.069Z,16.31
2022-10-31T10:59:02.693Z,16.34
2022-10-31T11:00:02.373Z,16.40
2022-10-31T11:01:02.653Z,16.43
2022-10-31T11:02:03.193Z,16.49
2022-10-31T11:03:03.516Z,16.56
2022-10-31T11:04:02.687Z,16.62
2022-10-31T11:05:03.210Z,16.66
2022-10-31T11:06:03.131Z,16.72
2022-10-31T11:07:03.375Z,16.76
2022-10-31T11:08:02.976Z,16.85
2022-10-31T11:09:02.970Z,16.88
2022-10-31T11:10:02.909Z,16.93
2022-10-31T11:11:03.168Z,16.97
2022-10-31T11:12:02.960Z,17.00
2022-10-31T11:13:03.374Z,17.05
2022-10-31T11:14:02.312Z,17.08
2022-10-31T11:15:02.412Z,17.08
2022-10-31T11:16:02.730Z,17.08
2022-10-31T11:17:03.319Z,17.07
2022-10-31T11:18:02.857Z,17.03
2022-10-31T11:19:03.075Z,17.04
2022-10-31T11:20:03.164Z,17.00
2022-10-31T11:21:02.959Z,17.09
2022-10-31T11:22:02.294Z,17.08
2022-10-31T11:23:02.568Z,17.12
2022-10-31T11:24:02.531Z,17.20
2022-10-31T11:25:02.692Z,17.20
2022-10-31T11:26:02.586Z,17.24
2022-10-31T11:27:02.499Z,17.20
2022-10-31T11:28:02.709Z,17.21
2022-10-31T11:29:02.769Z,17.23
2022-10-31T11:30:02.783Z,17.25
2022-10-31T11:31:02.990Z,17.25
2022-10-31T11:32:02.719Z,17.27
2022-10-31T11:33:03.138Z,17.32
2022-10-31T11:34:03.386Z,17.30
2022-10-31T11:35:03.074Z,17.28
2022-10-31T11:36:03.398Z,17.30
2022-10-31T11:37:02.994Z,17.34
2022-10-31T11:38:03.692Z,17.39
2022-10-31T11:39:03.206Z,17.46
2022-10-31T11:40:03.683Z,17.53
2022-10-31T11:41:03.472Z,17.61
2022-10-31T11:42:08.527Z,17.63
2022-10-31T11:43:03.131Z,17.68
2022-10-31T11:44:03.199Z,17.67
2022-10-31T11:45:03.341Z,17.70
2022-10-31T11:46:03.603Z,17.77
2022-10-31T11:47:03.426Z,17.81
2022-10-31T11:48:03.342Z,17.84
2022-10-31T11:49:02.740Z,17.90
2022-10-31T11:50:03.035Z,17.96
2022-10-31T11:51:02.941Z,17.97
2022-10-31T11:52:02.744Z,17.95
2022-10-31T11:53:03.407Z,17.98
2022-10-31T11:54:03.457Z,18.02
2022-10-31T11:55:03.457Z,18.02
2022-10-31T11:56:03.489Z,18.06
2022-10-31T11:57:03.144Z,18.04
2022-10-31T11:58:03.231Z,18.09
2022-10-31T11:59:02.907Z,18.08
2022-10-31T12:00:02.461Z,18.15
2022-10-31T12:01:02.891Z,18.19
2022-10-31T12:02:02.812Z,18.24
2022-10-31T12:03:03.226Z,18.30
2022-10-31T12:04:02.717Z,18.39
2022-10-31T12:05:02.352Z,18.45
2022-10-31T12:06:02.704Z,18.51
2022-10-31T12:07:02.548Z,18.55
2022-10-31T12:08:04.637Z,18.57
2022-10-31T12:09:03.039Z,18.55
2022-10-31T12:10:03.000Z,18.58
2022-10-31T12:11:03.110Z,18.63
2022-10-31T12:12:03.224Z,18.66
2022-10-31T12:13:03.647Z,18.64
2022-10-31T12:14:04.214Z,18.67
2022-10-31T12:15:02.937Z,18.64
2022-10-31T12:16:03.009Z,18.65
2022-10-31T12:17:02.786Z,18.66
2022-10-31T12:18:02.495Z,18.66
2022-10-31T12:19:02.603Z,18.67
2022-10-31T12:20:02.901Z,18.75
2022-10-31T12:21:02.658Z,18.82
2022-10-31T12:22:02.817Z,18.82
2022-10-31T12:23:03.196Z,18.87
2022-10-31T12:24:02.461Z,18.91
2022-10-31T12:25:02.885Z,18.92
2022-10-31T12:26:02.439Z,18.96
2022-10-31T12:27:02.747Z,19.03
2022-10-31T12:28:03.237Z,19.08
2022-10-31T12:29:03.132Z,19.11
2022-10-31T12:30:03.334Z,19.12
2022-10-31T12:31:03.579Z,19.22
2022-10-31T12:32:03.713Z,19.25
2022-10-31T12:33:03.492Z,19.29
2022-10-31T12:34:03.217Z,19.30
2022-10-31T12:35:02.906Z,19.38
2022-10-31T12:36:03.372Z,19.32
2022-10-31T12:37:03.362Z,19.36
2022-10-31T12:38:02.752Z,19.29
2022-10-31T12:39:02.370Z,19.35
2022-10-31T12:40:02.495Z,19.38
2022-10-31T12:41:02.702Z,19.39
2022-10-31T12:42:02.379Z,19.45
2022-10-31T12:43:02.970Z,19.50
2022-10-31T12:44:03.156Z,19.56
2022-10-31T12:45:02.995Z,19.57
2022-10-31T12:46:02.831Z,19.63
2022-10-31T12:47:03.216Z,19.67
2022-10-31T12:48:03.146Z,19.58
2022-10-31T12:49:03.624Z,19.64
2022-10-31T12:50:03.188Z,19.61
2022-10-31T12:51:03.542Z,19.61
2022-10-31T12:52:03.464Z,19.55